sensor_id;sensor_type;location;lat;lon;timestamp;P1;durP1;ratioP1;P2;durP2;ratioP2
9481;SDS011;4779;48.062;11.672;2024-03-22T00:00:59;14.23;;;12.73;;
9481;SDS011;4779;48.062;11.672;2024-03-22T00:03:26;16.27;;;14.57;;
9481;SDS011;4779;48.062;11.672;2024-03-22T00:05:54;15.80;;;14.20;;
9481;SDS011;4779;48.062;11.672;2024-03-22T00:08:20;15.13;;;13.63;;
9481;SDS011;4779;48.062;11.672;2024-03-22T00:10:47;15.57;;;14.07;;
9481;SDS011;4779;48.062;11.672;2024-03-22T00:13:14;15.80;;;14.23;;
9481;SDS011;4779;48.062;11.672;2024-03-22T00:15:41;15.73;;;14.07;;
9481;SDS011;4779;48.062;11.672;2024-03-22T00:18:07;15.10;;;13.70;;
9481;SDS011;4779;48.062;11.672;2024-03-22T00:20:36;14.93;;;13.43;;
9481;SDS011;4779;48.062;11.672;2024-03-22T00:23:02;15.60;;;14.00;;
9481;SDS011;4779;48.062;11.672;2024-03-22T00:25:29;14.47;;;13.07;;
9481;SDS011;4779;48.062;11.672;2024-03-22T00:27:56;12.73;;;11.50;;
9481;SDS011;4779;48.062;11.672;2024-03-22T00:30:23;13.50;;;12.10;;
9481;SDS011;4779;48.062;11.672;2024-03-22T00:32:49;12.83;;;11.53;;
9481;SDS011;4779;48.062;11.672;2024-03-22T00:35:16;13.13;;;11.90;;
9481;SDS011;4779;48.062;11.672;2024-03-22T00:37:43;13.03;;;11.73;;
9481;SDS011;4779;48.062;11.672;2024-03-22T00:40:10;13.27;;;12.03;;
9481;SDS011;4779;48.062;11.672;2024-03-22T00:42:37;13.17;;;11.87;;
9481;SDS011;4779;48.062;11.672;2024-03-22T00:45:04;13.60;;;12.27;;
9481;SDS011;4779;48.062;11.672;2024-03-22T00:47:31;13.13;;;11.83;;
9481;SDS011;4779;48.062;11.672;2024-03-22T00:49:58;13.83;;;12.53;;
9481;SDS011;4779;48.062;11.672;2024-03-22T00:52:24;15.20;;;13.77;;
9481;SDS011;4779;48.062;11.672;2024-03-22T00:54:52;14.57;;;13.17;;
9481;SDS011;4779;48.062;11.672;2024-03-22T00:57:18;13.13;;;11.83;;
9481;SDS011;4779;48.062;11.672;2024-03-22T00:59:45;13.57;;;12.17;;
9481;SDS011;4779;48.062;11.672;2024-03-22T01:02:12;13.33;;;11.83;;
9481;SDS011;4779;48.062;11.672;2024-03-22T01:04:39;13.20;;;11.80;;
9481;SDS011;4779;48.062;11.672;2024-03-22T01:07:05;13.30;;;12.00;;
9481;SDS011;4779;48.062;11.672;2024-03-22T01:09:32;12.80;;;11.50;;
9481;SDS011;4779;48.062;11.672;2024-03-22T01:11:59;13.07;;;11.57;;
9481;SDS011;4779;48.062;11.672;2024-03-22T01:14:26;12.97;;;11.60;;
9481;SDS011;4779;48.062;11.672;2024-03-22T01:16:52;12.90;;;11.60;;
9481;SDS011;4779;48.062;11.672;2024-03-22T01:19:20;13.60;;;12.20;;
9481;SDS011;4779;48.062;11.672;2024-03-22T01:21:48;12.47;;;11.27;;
9481;SDS011;4779;48.062;11.672;2024-03-22T01:24:15;15.30;;;11.90;;
9481;SDS011;4779;48.062;11.672;2024-03-22T01:26:41;13.70;;;12.30;;
9481;SDS011;4779;48.062;11.672;2024-03-22T01:29:09;13.53;;;12.13;;
9481;SDS011;4779;48.062;11.672;2024-03-22T01:31:35;12.87;;;11.43;;
9481;SDS011;4779;48.062;11.672;2024-03-22T01:34:02;13.07;;;11.63;;
9481;SDS011;4779;48.062;11.672;2024-03-22T01:36:28;12.47;;;11.17;;
9481;SDS011;4779;48.062;11.672;2024-03-22T01:38:55;12.80;;;11.50;;
9481;SDS011;4779;48.062;11.672;2024-03-22T01:41:21;11.77;;;10.57;;
9481;SDS011;4779;48.062;11.672;2024-03-22T01:43:48;12.87;;;11.67;;
9481;SDS011;4779;48.062;11.672;2024-03-22T01:46:16;13.17;;;11.83;;
9481;SDS011;4779;48.062;11.672;2024-03-22T01:48:43;12.40;;;11.17;;
9481;SDS011;4779;48.062;11.672;2024-03-22T01:51:09;11.67;;;10.57;;
9481;SDS011;4779;48.062;11.672;2024-03-22T01:53:36;11.90;;;10.70;;
9481;SDS011;4779;48.062;11.672;2024-03-22T01:56:03;11.57;;;10.37;;
9481;SDS011;4779;48.062;11.672;2024-03-22T01:58:31;12.20;;;11.00;;
9481;SDS011;4779;48.062;11.672;2024-03-22T02:00:58;13.50;;;12.17;;
9481;SDS011;4779;48.062;11.672;2024-03-22T02:03:26;11.50;;;10.40;;
9481;SDS011;4779;48.062;11.672;2024-03-22T02:05:52;12.47;;;11.17;;
9481;SDS011;4779;48.062;11.672;2024-03-22T02:08:19;12.27;;;10.90;;
9481;SDS011;4779;48.062;11.672;2024-03-22T02:10:46;11.93;;;10.73;;
9481;SDS011;4779;48.062;11.672;2024-03-22T02:13:13;11.37;;;10.33;;
9481;SDS011;4779;48.062;11.672;2024-03-22T02:15:39;11.73;;;10.53;;
9481;SDS011;4779;48.062;11.672;2024-03-22T02:18:06;12.97;;;10.67;;
9481;SDS011;4779;48.062;11.672;2024-03-22T02:20:34;11.87;;;10.67;;
9481;SDS011;4779;48.062;11.672;2024-03-22T02:23:01;11.53;;;10.33;;
9481;SDS011;4779;48.062;11.672;2024-03-22T02:25:28;11.80;;;10.70;;
9481;SDS011;4779;48.062;11.672;2024-03-22T02:27:55;12.30;;;11.10;;
9481;SDS011;4779;48.062;11.672;2024-03-22T02:30:21;11.67;;;10.27;;
9481;SDS011;4779;48.062;11.672;2024-03-22T02:32:48;11.40;;;10.30;;
9481;SDS011;4779;48.062;11.672;2024-03-22T02:35:14;11.67;;;10.57;;
9481;SDS011;4779;48.062;11.672;2024-03-22T02:37:41;11.73;;;10.53;;
9481;SDS011;4779;48.062;11.672;2024-03-22T02:40:08;12.10;;;10.80;;
9481;SDS011;4779;48.062;11.672;2024-03-22T02:42:37;12.10;;;10.90;;
9481;SDS011;4779;48.062;11.672;2024-03-22T02:45:03;11.90;;;10.50;;
9481;SDS011;4779;48.062;11.672;2024-03-22T02:47:30;11.97;;;10.77;;
9481;SDS011;4779;48.062;11.672;2024-03-22T02:49:56;11.83;;;10.60;;
9481;SDS011;4779;48.062;11.672;2024-03-22T02:52:23;12.23;;;10.23;;
9481;SDS011;4779;48.062;11.672;2024-03-22T02:54:49;12.20;;;11.00;;
9481;SDS011;4779;48.062;11.672;2024-03-22T02:57:16;11.67;;;10.47;;
9481;SDS011;4779;48.062;11.672;2024-03-22T02:59:46;11.17;;;10.07;;
9481;SDS011;4779;48.062;11.672;2024-03-22T03:02:13;11.37;;;10.20;;
9481;SDS011;4779;48.062;11.672;2024-03-22T03:04:39;11.23;;;10.13;;
9481;SDS011;4779;48.062;11.672;2024-03-22T03:07:06;12.53;;;11.23;;
9481;SDS011;4779;48.062;11.672;2024-03-22T03:09:32;11.73;;;10.53;;
9481;SDS011;4779;48.062;11.672;2024-03-22T03:12:00;12.17;;;10.87;;
9481;SDS011;4779;48.062;11.672;2024-03-22T03:14:26;12.77;;;11.43;;
9481;SDS011;4779;48.062;11.672;2024-03-22T03:16:55;13.70;;;12.30;;
9481;SDS011;4779;48.062;11.672;2024-03-22T03:19:21;12.83;;;11.50;;
9481;SDS011;4779;48.062;11.672;2024-03-22T03:21:48;12.63;;;11.37;;
9481;SDS011;4779;48.062;11.672;2024-03-22T03:24:14;11.67;;;10.13;;
9481;SDS011;4779;48.062;11.672;2024-03-22T03:26:41;11.23;;;10.13;;
9481;SDS011;4779;48.062;11.672;2024-03-22T03:29:07;12.23;;;10.60;;
9481;SDS011;4779;48.062;11.672;2024-03-22T03:31:35;12.03;;;10.70;;
9481;SDS011;4779;48.062;11.672;2024-03-22T03:34:02;12.43;;;11.23;;
9481;SDS011;4779;48.062;11.672;2024-03-22T03:36:29;12.17;;;10.70;;
9481;SDS011;4779;48.062;11.672;2024-03-22T03:38:55;11.83;;;10.63;;
9481;SDS011;4779;48.062;11.672;2024-03-22T03:41:25;12.53;;;11.33;;
9481;SDS011;4779;48.062;11.672;2024-03-22T03:43:51;11.63;;;10.43;;
9481;SDS011;4779;48.062;11.672;2024-03-22T03:46:18;12.07;;;10.87;;
9481;SDS011;4779;48.062;11.672;2024-03-22T03:48:44;11.50;;;10.27;;
9481;SDS011;4779;48.062;11.672;2024-03-22T03:51:13;11.43;;;10.20;;
9481;SDS011;4779;48.062;11.672;2024-03-22T03:53:39;12.03;;;10.83;;
9481;SDS011;4779;48.062;11.672;2024-03-22T03:56:06;11.27;;;10.17;;
9481;SDS011;4779;48.062;11.672;2024-03-22T03:58:32;11.67;;;10.57;;
9481;SDS011;4779;48.062;11.672;2024-03-22T04:00:59;11.57;;;10.20;;
9481;SDS011;4779;48.062;11.672;2024-03-22T04:03:30;11.23;;;10.13;;
9481;SDS011;4779;48.062;11.672;2024-03-22T04:05:57;11.03;;;9.93;;
9481;SDS011;4779;48.062;11.672;2024-03-22T04:08:25;11.37;;;10.23;;
9481;SDS011;4779;48.062;11.672;2024-03-22T04:10:53;10.93;;;9.80;;
9481;SDS011;4779;48.062;11.672;2024-03-22T04:13:21;11.30;;;10.20;;
9481;SDS011;4779;48.062;11.672;2024-03-22T04:15:49;11.83;;;10.53;;
9481;SDS011;4779;48.062;11.672;2024-03-22T04:18:15;10.97;;;9.87;;
9481;SDS011;4779;48.062;11.672;2024-03-22T04:20:42;11.53;;;10.33;;
9481;SDS011;4779;48.062;11.672;2024-03-22T04:23:08;11.03;;;9.93;;
9481;SDS011;4779;48.062;11.672;2024-03-22T04:25:37;10.80;;;9.70;;
9481;SDS011;4779;48.062;11.672;2024-03-22T04:28:03;10.20;;;9.20;;
9481;SDS011;4779;48.062;11.672;2024-03-22T04:30:31;12.40;;;11.13;;
9481;SDS011;4779;48.062;11.672;2024-03-22T04:32:57;14.03;;;12.63;;
9481;SDS011;4779;48.062;11.672;2024-03-22T04:35:24;13.90;;;12.50;;
9481;SDS011;4779;48.062;11.672;2024-03-22T04:37:50;12.77;;;11.47;;
9481;SDS011;4779;48.062;11.672;2024-03-22T04:40:17;13.10;;;11.80;;
9481;SDS011;4779;48.062;11.672;2024-03-22T04:42:45;13.13;;;11.73;;
9481;SDS011;4779;48.062;11.672;2024-03-22T04:45:12;12.40;;;11.07;;
9481;SDS011;4779;48.062;11.672;2024-03-22T04:47:38;12.07;;;10.87;;
9481;SDS011;4779;48.062;11.672;2024-03-22T04:50:06;11.73;;;10.30;;
9481;SDS011;4779;48.062;11.672;2024-03-22T04:52:34;12.93;;;10.30;;
9481;SDS011;4779;48.062;11.672;2024-03-22T04:55:01;11.87;;;10.67;;
9481;SDS011;4779;48.062;11.672;2024-03-22T04:57:27;11.83;;;9.90;;
9481;SDS011;4779;48.062;11.672;2024-03-22T04:59:55;11.37;;;10.17;;
9481;SDS011;4779;48.062;11.672;2024-03-22T05:02:21;11.07;;;9.97;;
9481;SDS011;4779;48.062;11.672;2024-03-22T05:04:48;10.70;;;9.67;;
9481;SDS011;4779;48.062;11.672;2024-03-22T05:07:14;10.43;;;9.33;;
9481;SDS011;4779;48.062;11.672;2024-03-22T05:09:42;11.37;;;10.27;;
9481;SDS011;4779;48.062;11.672;2024-03-22T05:12:08;12.23;;;10.93;;
9481;SDS011;4779;48.062;11.672;2024-03-22T05:14:35;12.27;;;10.83;;
9481;SDS011;4779;48.062;11.672;2024-03-22T05:17:02;11.67;;;10.47;;
9481;SDS011;4779;48.062;11.672;2024-03-22T05:19:30;11.57;;;10.37;;
9481;SDS011;4779;48.062;11.672;2024-03-22T05:21:56;11.33;;;10.23;;
9481;SDS011;4779;48.062;11.672;2024-03-22T05:24:23;11.53;;;10.33;;
9481;SDS011;4779;48.062;11.672;2024-03-22T05:26:50;10.80;;;9.70;;
9481;SDS011;4779;48.062;11.672;2024-03-22T05:29:17;10.97;;;9.97;;
9481;SDS011;4779;48.062;11.672;2024-03-22T05:31:45;11.53;;;9.63;;
9481;SDS011;4779;48.062;11.672;2024-03-22T05:34:15;11.37;;;10.17;;
9481;SDS011;4779;48.062;11.672;2024-03-22T05:36:41;11.33;;;10.23;;
9481;SDS011;4779;48.062;11.672;2024-03-22T05:39:08;11.47;;;10.27;;
9481;SDS011;4779;48.062;11.672;2024-03-22T05:41:35;11.00;;;9.90;;
9481;SDS011;4779;48.062;11.672;2024-03-22T05:44:03;11.63;;;10.47;;
9481;SDS011;4779;48.062;11.672;2024-03-22T05:46:29;12.13;;;10.87;;
9481;SDS011;4779;48.062;11.672;2024-03-22T05:48:56;11.67;;;10.47;;
9481;SDS011;4779;48.062;11.672;2024-03-22T05:51:25;13.67;;;11.87;;
9481;SDS011;4779;48.062;11.672;2024-03-22T05:53:52;12.47;;;11.20;;
9481;SDS011;4779;48.062;11.672;2024-03-22T05:56:18;12.60;;;11.30;;
9481;SDS011;4779;48.062;11.672;2024-03-22T05:58:45;12.93;;;11.47;;
9481;SDS011;4779;48.062;11.672;2024-03-22T06:01:11;13.17;;;11.60;;
9481;SDS011;4779;48.062;11.672;2024-03-22T06:03:38;13.07;;;11.77;;
9481;SDS011;4779;48.062;11.672;2024-03-22T06:06:06;11.67;;;10.50;;
9481;SDS011;4779;48.062;11.672;2024-03-22T06:08:35;12.93;;;11.63;;
9481;SDS011;4779;48.062;11.672;2024-03-22T06:11:04;12.53;;;11.13;;
9481;SDS011;4779;48.062;11.672;2024-03-22T06:13:33;12.40;;;11.10;;
9481;SDS011;4779;48.062;11.672;2024-03-22T06:16:03;12.50;;;11.20;;
9481;SDS011;4779;48.062;11.672;2024-03-22T06:18:31;12.70;;;11.37;;
9481;SDS011;4779;48.062;11.672;2024-03-22T06:20:57;13.00;;;11.60;;
9481;SDS011;4779;48.062;11.672;2024-03-22T06:23:24;11.50;;;10.30;;
9481;SDS011;4779;48.062;11.672;2024-03-22T06:25:54;12.50;;;11.23;;
9481;SDS011;4779;48.062;11.672;2024-03-22T06:28:22;12.30;;;11.00;;
9481;SDS011;4779;48.062;11.672;2024-03-22T06:30:48;12.27;;;10.97;;
9481;SDS011;4779;48.062;11.672;2024-03-22T06:33:15;13.13;;;11.37;;
9481;SDS011;4779;48.062;11.672;2024-03-22T06:35:41;11.67;;;10.47;;
9481;SDS011;4779;48.062;11.672;2024-03-22T06:38:08;13.03;;;10.90;;
9481;SDS011;4779;48.062;11.672;2024-03-22T06:40:35;12.43;;;11.20;;
9481;SDS011;4779;48.062;11.672;2024-03-22T06:43:03;12.17;;;10.97;;
9481;SDS011;4779;48.062;11.672;2024-03-22T06:45:29;12.77;;;11.47;;
9481;SDS011;4779;48.062;11.672;2024-03-22T06:47:56;11.90;;;10.70;;
9481;SDS011;4779;48.062;11.672;2024-03-22T06:50:22;12.70;;;11.40;;
9481;SDS011;4779;48.062;11.672;2024-03-22T06:52:50;13.20;;;11.80;;
9481;SDS011;4779;48.062;11.672;2024-03-22T06:55:16;13.33;;;11.93;;
9481;SDS011;4779;48.062;11.672;2024-03-22T06:57:44;12.00;;;10.80;;
9481;SDS011;4779;48.062;11.672;2024-03-22T07:00:13;13.00;;;11.63;;
9481;SDS011;4779;48.062;11.672;2024-03-22T07:02:40;12.13;;;10.93;;
9481;SDS011;4779;48.062;11.672;2024-03-22T07:05:06;12.57;;;10.77;;
9481;SDS011;4779;48.062;11.672;2024-03-22T07:07:35;12.30;;;11.00;;
9481;SDS011;4779;48.062;11.672;2024-03-22T07:10:01;12.60;;;11.30;;
9481;SDS011;4779;48.062;11.672;2024-03-22T07:12:29;12.87;;;11.57;;
9481;SDS011;4779;48.062;11.672;2024-03-22T07:14:55;12.43;;;11.13;;
9481;SDS011;4779;48.062;11.672;2024-03-22T07:17:24;13.47;;;12.07;;
9481;SDS011;4779;48.062;11.672;2024-03-22T07:19:50;12.80;;;11.43;;
9481;SDS011;4779;48.062;11.672;2024-03-22T07:22:17;14.20;;;11.97;;
9481;SDS011;4779;48.062;11.672;2024-03-22T07:24:43;13.60;;;11.60;;
9481;SDS011;4779;48.062;11.672;2024-03-22T07:27:10;12.77;;;10.63;;
9481;SDS011;4779;48.062;11.672;2024-03-22T07:29:36;12.00;;;10.70;;
9481;SDS011;4779;48.062;11.672;2024-03-22T07:32:04;12.00;;;10.60;;
9481;SDS011;4779;48.062;11.672;2024-03-22T07:34:32;12.03;;;10.77;;
9481;SDS011;4779;48.062;11.672;2024-03-22T07:36:59;11.20;;;10.00;;
9481;SDS011;4779;48.062;11.672;2024-03-22T07:39:25;11.00;;;9.90;;
9481;SDS011;4779;48.062;11.672;2024-03-22T07:41:52;9.73;;;8.83;;
9481;SDS011;4779;48.062;11.672;2024-03-22T07:44:18;9.97;;;8.93;;
9481;SDS011;4779;48.062;11.672;2024-03-22T07:46:46;9.60;;;8.60;;
9481;SDS011;4779;48.062;11.672;2024-03-22T07:49:12;10.80;;;9.13;;
9481;SDS011;4779;48.062;11.672;2024-03-22T07:51:40;9.63;;;8.07;;
9481;SDS011;4779;48.062;11.672;2024-03-22T07:54:06;9.43;;;8.53;;
9481;SDS011;4779;48.062;11.672;2024-03-22T07:56:33;8.83;;;7.90;;
9481;SDS011;4779;48.062;11.672;2024-03-22T07:59:00;8.43;;;7.17;;
9481;SDS011;4779;48.062;11.672;2024-03-22T08:01:27;8.40;;;7.57;;
9481;SDS011;4779;48.062;11.672;2024-03-22T08:03:53;8.17;;;7.37;;
9481;SDS011;4779;48.062;11.672;2024-03-22T08:06:22;7.93;;;7.03;;
9481;SDS011;4779;48.062;11.672;2024-03-22T08:08:51;8.67;;;7.30;;
9481;SDS011;4779;48.062;11.672;2024-03-22T08:11:18;7.90;;;7.20;;
9481;SDS011;4779;48.062;11.672;2024-03-22T08:13:44;8.03;;;7.23;;
9481;SDS011;4779;48.062;11.672;2024-03-22T08:16:11;7.67;;;6.83;;
9481;SDS011;4779;48.062;11.672;2024-03-22T08:18:37;7.73;;;6.77;;
9481;SDS011;4779;48.062;11.672;2024-03-22T08:21:04;6.70;;;6.10;;
9481;SDS011;4779;48.062;11.672;2024-03-22T08:23:33;7.73;;;7.03;;
9481;SDS011;4779;48.062;11.672;2024-03-22T08:26:02;7.20;;;6.47;;
9481;SDS011;4779;48.062;11.672;2024-03-22T08:28:28;6.63;;;6.03;;
9481;SDS011;4779;48.062;11.672;2024-03-22T08:30:55;6.60;;;5.70;;
9481;SDS011;4779;48.062;11.672;2024-03-22T08:33:21;6.83;;;6.07;;
9481;SDS011;4779;48.062;11.672;2024-03-22T08:35:48;6.83;;;5.00;;
9481;SDS011;4779;48.062;11.672;2024-03-22T08:38:14;6.17;;;5.57;;
9481;SDS011;4779;48.062;11.672;2024-03-22T08:40:41;6.20;;;5.60;;
9481;SDS011;4779;48.062;11.672;2024-03-22T08:43:09;7.23;;;5.50;;
9481;SDS011;4779;48.062;11.672;2024-03-22T08:45:36;5.90;;;5.30;;
9481;SDS011;4779;48.062;11.672;2024-03-22T08:48:02;5.53;;;5.00;;
9481;SDS011;4779;48.062;11.672;2024-03-22T08:50:30;5.93;;;5.33;;
9481;SDS011;4779;48.062;11.672;2024-03-22T08:52:56;5.93;;;5.33;;
9481;SDS011;4779;48.062;11.672;2024-03-22T08:55:23;5.70;;;5.10;;
9481;SDS011;4779;48.062;11.672;2024-03-22T08:57:49;5.50;;;4.87;;
9481;SDS011;4779;48.062;11.672;2024-03-22T09:00:18;5.83;;;4.93;;
9481;SDS011;4779;48.062;11.672;2024-03-22T09:02:44;5.90;;;5.20;;
9481;SDS011;4779;48.062;11.672;2024-03-22T09:05:12;6.10;;;5.50;;
9481;SDS011;4779;48.062;11.672;2024-03-22T09:07:38;5.57;;;5.07;;
9481;SDS011;4779;48.062;11.672;2024-03-22T09:10:06;6.13;;;5.63;;
9481;SDS011;4779;48.062;11.672;2024-03-22T09:12:32;5.73;;;5.20;;
9481;SDS011;4779;48.062;11.672;2024-03-22T09:15:00;5.70;;;5.17;;
9481;SDS011;4779;48.062;11.672;2024-03-22T09:17:28;5.57;;;5.07;;
9481;SDS011;4779;48.062;11.672;2024-03-22T09:19:55;6.30;;;4.90;;
9481;SDS011;4779;48.062;11.672;2024-03-22T09:22:21;5.50;;;5.00;;
9481;SDS011;4779;48.062;11.672;2024-03-22T09:24:48;6.80;;;5.17;;
9481;SDS011;4779;48.062;11.672;2024-03-22T09:27:15;5.77;;;5.17;;
9481;SDS011;4779;48.062;11.672;2024-03-22T09:29:42;5.03;;;4.50;;
9481;SDS011;4779;48.062;11.672;2024-03-22T09:32:08;5.30;;;4.80;;
9481;SDS011;4779;48.062;11.672;2024-03-22T09:34:37;5.17;;;4.60;;
9481;SDS011;4779;48.062;11.672;2024-03-22T09:37:03;8.45;;;4.70;;
9481;SDS011;4779;48.062;11.672;2024-03-22T09:39:30;5.10;;;4.53;;
9481;SDS011;4779;48.062;11.672;2024-03-22T09:41:57;5.40;;;4.90;;
9481;SDS011;4779;48.062;11.672;2024-03-22T09:44:25;5.53;;;3.95;;
9481;SDS011;4779;48.062;11.672;2024-03-22T09:46:53;4.32;;;3.92;;
9481;SDS011;4779;48.062;11.672;2024-03-22T09:49:20;5.13;;;4.30;;
9481;SDS011;4779;48.062;11.672;2024-03-22T09:51:49;4.28;;;3.88;;
9481;SDS011;4779;48.062;11.672;2024-03-22T09:54:18;4.50;;;3.90;;
9481;SDS011;4779;48.062;11.672;2024-03-22T09:56:44;4.75;;;4.10;;
9481;SDS011;4779;48.062;11.672;2024-03-22T09:59:15;5.85;;;4.40;;
9481;SDS011;4779;48.062;11.672;2024-03-22T10:01:41;4.30;;;3.53;;
9481;SDS011;4779;48.062;11.672;2024-03-22T10:04:09;5.95;;;3.63;;
9481;SDS011;4779;48.062;11.672;2024-03-22T10:06:35;4.43;;;3.55;;
9481;SDS011;4779;48.062;11.672;2024-03-22T10:09:04;3.67;;;3.28;;
9481;SDS011;4779;48.062;11.672;2024-03-22T10:11:30;4.68;;;3.67;;
9481;SDS011;4779;48.062;11.672;2024-03-22T10:13:59;3.67;;;3.38;;
9481;SDS011;4779;48.062;11.672;2024-03-22T10:16:26;4.53;;;3.65;;
9481;SDS011;4779;48.062;11.672;2024-03-22T10:18:53;4.03;;;3.30;;
9481;SDS011;4779;48.062;11.672;2024-03-22T10:21:20;3.90;;;3.20;;
9481;SDS011;4779;48.062;11.672;2024-03-22T10:23:47;3.58;;;2.90;;
9481;SDS011;4779;48.062;11.672;2024-03-22T10:26:17;3.45;;;2.75;;
9481;SDS011;4779;48.062;11.672;2024-03-22T10:28:45;3.20;;;3.00;;
9481;SDS011;4779;48.062;11.672;2024-03-22T10:31:11;2.88;;;2.40;;
9481;SDS011;4779;48.062;11.672;2024-03-22T10:33:39;4.50;;;2.90;;
9481;SDS011;4779;48.062;11.672;2024-03-22T10:36:06;3.20;;;2.78;;
9481;SDS011;4779;48.062;11.672;2024-03-22T10:38:33;4.13;;;2.63;;
9481;SDS011;4779;48.062;11.672;2024-03-22T10:41:03;3.22;;;2.60;;
9481;SDS011;4779;48.062;11.672;2024-03-22T10:43:32;3.05;;;2.55;;
9481;SDS011;4779;48.062;11.672;2024-03-22T10:46:00;3.83;;;2.78;;
9481;SDS011;4779;48.062;11.672;2024-03-22T10:48:29;3.75;;;2.50;;
9481;SDS011;4779;48.062;11.672;2024-03-22T10:50:58;3.13;;;2.70;;
9481;SDS011;4779;48.062;11.672;2024-03-22T10:53:26;2.95;;;2.75;;
9481;SDS011;4779;48.062;11.672;2024-03-22T10:55:53;3.00;;;2.67;;
9481;SDS011;4779;48.062;11.672;2024-03-22T10:58:24;3.83;;;2.70;;
9481;SDS011;4779;48.062;11.672;2024-03-22T11:00:52;4.35;;;2.58;;
9481;SDS011;4779;48.062;11.672;2024-03-22T11:03:20;3.05;;;2.60;;
9481;SDS011;4779;48.062;11.672;2024-03-22T11:05:48;3.38;;;2.75;;
9481;SDS011;4779;48.062;11.672;2024-03-22T11:08:22;3.00;;;2.70;;
9481;SDS011;4779;48.062;11.672;2024-03-22T11:10:49;3.53;;;2.80;;
9481;SDS011;4779;48.062;11.672;2024-03-22T11:13:16;3.00;;;2.72;;
9481;SDS011;4779;48.062;11.672;2024-03-22T11:15:43;3.30;;;2.80;;
9481;SDS011;4779;48.062;11.672;2024-03-22T11:18:11;4.30;;;3.42;;
9481;SDS011;4779;48.062;11.672;2024-03-22T11:20:37;3.35;;;3.05;;
9481;SDS011;4779;48.062;11.672;2024-03-22T11:23:04;5.40;;;3.33;;
9481;SDS011;4779;48.062;11.672;2024-03-22T11:25:31;3.78;;;2.88;;
9481;SDS011;4779;48.062;11.672;2024-03-22T11:27:58;3.17;;;2.80;;
9481;SDS011;4779;48.062;11.672;2024-03-22T11:30:25;3.63;;;2.80;;
9481;SDS011;4779;48.062;11.672;2024-03-22T11:32:53;3.30;;;3.03;;
9481;SDS011;4779;48.062;11.672;2024-03-22T11:35:21;4.00;;;2.92;;
9481;SDS011;4779;48.062;11.672;2024-03-22T11:37:49;3.40;;;3.10;;
9481;SDS011;4779;48.062;11.672;2024-03-22T11:40:16;4.00;;;3.17;;
9481;SDS011;4779;48.062;11.672;2024-03-22T11:42:44;4.28;;;2.60;;
9481;SDS011;4779;48.062;11.672;2024-03-22T11:45:14;3.30;;;2.90;;
9481;SDS011;4779;48.062;11.672;2024-03-22T11:47:44;3.45;;;2.92;;
9481;SDS011;4779;48.062;11.672;2024-03-22T11:50:11;3.47;;;3.13;;
9481;SDS011;4779;48.062;11.672;2024-03-22T11:52:41;4.53;;;2.85;;
9481;SDS011;4779;48.062;11.672;2024-03-22T11:55:09;3.20;;;2.50;;
9481;SDS011;4779;48.062;11.672;2024-03-22T11:57:36;3.50;;;2.80;;
9481;SDS011;4779;48.062;11.672;2024-03-22T12:00:03;4.53;;;3.05;;
9481;SDS011;4779;48.062;11.672;2024-03-22T12:02:35;2.30;;;1.90;;
9481;SDS011;4779;48.062;11.672;2024-03-22T12:05:03;2.75;;;2.35;;
9481;SDS011;4779;48.062;11.672;2024-03-22T12:07:30;2.50;;;2.30;;
9481;SDS011;4779;48.062;11.672;2024-03-22T12:10:00;2.88;;;2.30;;
9481;SDS011;4779;48.062;11.672;2024-03-22T12:12:26;2.03;;;1.73;;
9481;SDS011;4779;48.062;11.672;2024-03-22T12:14:53;3.05;;;2.42;;
9481;SDS011;4779;48.062;11.672;2024-03-22T12:17:19;3.55;;;2.28;;
9481;SDS011;4779;48.062;11.672;2024-03-22T12:19:46;1.92;;;1.80;;
9481;SDS011;4779;48.062;11.672;2024-03-22T12:22:12;3.95;;;2.63;;
9481;SDS011;4779;48.062;11.672;2024-03-22T12:24:39;2.95;;;2.30;;
9481;SDS011;4779;48.062;11.672;2024-03-22T12:27:07;4.78;;;2.33;;
9481;SDS011;4779;48.062;11.672;2024-03-22T12:29:35;2.67;;;2.45;;
9481;SDS011;4779;48.062;11.672;2024-03-22T12:32:09;2.78;;;1.92;;
9481;SDS011;4779;48.062;11.672;2024-03-22T12:34:44;3.85;;;2.28;;
9481;SDS011;4779;48.062;11.672;2024-03-22T12:37:15;3.05;;;2.75;;
9481;SDS011;4779;48.062;11.672;2024-03-22T12:39:42;3.55;;;2.70;;
9481;SDS011;4779;48.062;11.672;2024-03-22T12:42:09;4.13;;;2.40;;
9481;SDS011;4779;48.062;11.672;2024-03-22T12:44:36;3.10;;;2.47;;
9481;SDS011;4779;48.062;11.672;2024-03-22T12:47:02;2.95;;;2.50;;
9481;SDS011;4779;48.062;11.672;2024-03-22T12:49:29;3.50;;;2.60;;
9481;SDS011;4779;48.062;11.672;2024-03-22T12:51:56;4.13;;;2.70;;
9481;SDS011;4779;48.062;11.672;2024-03-22T12:54:23;4.80;;;3.15;;
9481;SDS011;4779;48.062;11.672;2024-03-22T12:56:50;3.33;;;2.70;;
9481;SDS011;4779;48.062;11.672;2024-03-22T12:59:19;5.28;;;2.70;;
9481;SDS011;4779;48.062;11.672;2024-03-22T13:01:45;3.33;;;2.40;;
9481;SDS011;4779;48.062;11.672;2024-03-22T13:04:12;2.83;;;2.17;;
9481;SDS011;4779;48.062;11.672;2024-03-22T13:06:38;3.22;;;2.33;;
9481;SDS011;4779;48.062;11.672;2024-03-22T13:09:05;5.20;;;2.63;;
9481;SDS011;4779;48.062;11.672;2024-03-22T13:11:34;2.58;;;2.03;;
9481;SDS011;4779;48.062;11.672;2024-03-22T13:14:02;4.28;;;2.25;;
9481;SDS011;4779;48.062;11.672;2024-03-22T13:16:30;1.98;;;1.83;;
9481;SDS011;4779;48.062;11.672;2024-03-22T13:18:57;2.95;;;2.10;;
9481;SDS011;4779;48.062;11.672;2024-03-22T13:21:23;2.72;;;1.83;;
9481;SDS011;4779;48.062;11.672;2024-03-22T13:23:50;2.95;;;1.90;;
9481;SDS011;4779;48.062;11.672;2024-03-22T13:26:16;2.15;;;1.90;;
9481;SDS011;4779;48.062;11.672;2024-03-22T13:28:45;2.47;;;2.28;;
9481;SDS011;4779;48.062;11.672;2024-03-22T13:31:11;3.50;;;2.17;;
9481;SDS011;4779;48.062;11.672;2024-03-22T13:33:40;3.00;;;2.22;;
9481;SDS011;4779;48.062;11.672;2024-03-22T13:36:06;3.28;;;2.03;;
9481;SDS011;4779;48.062;11.672;2024-03-22T13:38:33;2.47;;;2.05;;
9481;SDS011;4779;48.062;11.672;2024-03-22T13:40:59;2.30;;;1.80;;
9481;SDS011;4779;48.062;11.672;2024-03-22T13:43:29;2.42;;;1.85;;
9481;SDS011;4779;48.062;11.672;2024-03-22T13:45:55;2.13;;;1.80;;
9481;SDS011;4779;48.062;11.672;2024-03-22T13:48:23;2.20;;;1.70;;
9481;SDS011;4779;48.062;11.672;2024-03-22T13:50:52;3.08;;;1.98;;
9481;SDS011;4779;48.062;11.672;2024-03-22T13:53:20;2.42;;;1.77;;
9481;SDS011;4779;48.062;11.672;2024-03-22T13:55:47;3.53;;;1.88;;
9481;SDS011;4779;48.062;11.672;2024-03-22T13:58:14;2.10;;;1.80;;
9481;SDS011;4779;48.062;11.672;2024-03-22T14:00:40;2.17;;;1.95;;
9481;SDS011;4779;48.062;11.672;2024-03-22T14:03:07;1.95;;;1.42;;
9481;SDS011;4779;48.062;11.672;2024-03-22T14:05:33;2.97;;;1.80;;
9481;SDS011;4779;48.062;11.672;2024-03-22T14:08:02;3.17;;;2.10;;
9481;SDS011;4779;48.062;11.672;2024-03-22T14:10:29;3.20;;;1.70;;
9481;SDS011;4779;48.062;11.672;2024-03-22T14:12:56;2.22;;;2.03;;
9481;SDS011;4779;48.062;11.672;2024-03-22T14:15:23;1.73;;;1.50;;
9481;SDS011;4779;48.062;11.672;2024-03-22T14:17:51;1.90;;;1.70;;
9481;SDS011;4779;48.062;11.672;2024-03-22T14:20:17;3.15;;;1.80;;
9481;SDS011;4779;48.062;11.672;2024-03-22T14:22:44;1.85;;;1.73;;
9481;SDS011;4779;48.062;11.672;2024-03-22T14:25:13;2.40;;;1.60;;
9481;SDS011;4779;48.062;11.672;2024-03-22T14:27:40;3.60;;;1.90;;
9481;SDS011;4779;48.062;11.672;2024-03-22T14:30:10;1.83;;;1.70;;
9481;SDS011;4779;48.062;11.672;2024-03-22T14:32:38;2.22;;;1.80;;
9481;SDS011;4779;48.062;11.672;2024-03-22T14:35:05;3.35;;;1.70;;
9481;SDS011;4779;48.062;11.672;2024-03-22T14:37:33;2.45;;;1.80;;
9481;SDS011;4779;48.062;11.672;2024-03-22T14:39:59;2.53;;;1.75;;
9481;SDS011;4779;48.062;11.672;2024-03-22T14:42:31;2.30;;;1.70;;
9481;SDS011;4779;48.062;11.672;2024-03-22T14:44:57;2.95;;;1.50;;
9481;SDS011;4779;48.062;11.672;2024-03-22T14:47:24;2.30;;;1.80;;